ΕΜΥ, Εθνική Μετεωρολογική Υπηρεσία - Δελτία Καιρού, Προγνώσεις

ΑΕΡΟΝΑΥΤΙΛΙΑ

GREEK AIRPORTS CODES

TAF LGML 200100Z 2003/2012 36018KT 9999 FEW018 TEMPO 2003/2006 36018G28KT FEW018 SCT020=

EUROPEAN AIRPORTS CODES

LFPO 200300Z 18007KT 140V210 CAVOK 15/12 Q1013 NOSIG=